sensor_id;sensor_type;location;lat;lon;timestamp;P1;durP1;ratioP1;P2;durP2;ratioP2
24277;SDS011;12394;42.692;23.314;2024-02-16T00:00:40;24.93;;;14.90;;
24277;SDS011;12394;42.692;23.314;2024-02-16T00:03:09;26.63;;;15.33;;
24277;SDS011;12394;42.692;23.314;2024-02-16T00:05:35;25.13;;;15.57;;
24277;SDS011;12394;42.692;23.314;2024-02-16T00:08:01;23.33;;;15.07;;
24277;SDS011;12394;42.692;23.314;2024-02-16T00:10:28;21.93;;;14.63;;
24277;SDS011;12394;42.692;23.314;2024-02-16T00:12:53;23.20;;;14.83;;
24277;SDS011;12394;42.692;23.314;2024-02-16T00:15:19;27.40;;;15.30;;
24277;SDS011;12394;42.692;23.314;2024-02-16T00:17:45;27.10;;;14.67;;
24277;SDS011;12394;42.692;23.314;2024-02-16T00:20:10;22.07;;;13.27;;
24277;SDS011;12394;42.692;23.314;2024-02-16T00:22:39;23.07;;;14.20;;
24277;SDS011;12394;42.692;23.314;2024-02-16T00:25:05;26.97;;;14.63;;
24277;SDS011;12394;42.692;23.314;2024-02-16T00:27:31;23.07;;;13.43;;
24277;SDS011;12394;42.692;23.314;2024-02-16T00:29:57;24.10;;;13.50;;
24277;SDS011;12394;42.692;23.314;2024-02-16T00:32:22;21.67;;;14.07;;
24277;SDS011;12394;42.692;23.314;2024-02-16T00:34:55;22.20;;;13.67;;
24277;SDS011;12394;42.692;23.314;2024-02-16T00:37:21;22.43;;;13.93;;
24277;SDS011;12394;42.692;23.314;2024-02-16T00:39:46;24.03;;;13.57;;
24277;SDS011;12394;42.692;23.314;2024-02-16T00:42:12;22.17;;;13.63;;
24277;SDS011;12394;42.692;23.314;2024-02-16T00:44:37;23.30;;;13.40;;
24277;SDS011;12394;42.692;23.314;2024-02-16T00:47:03;28.07;;;13.87;;
24277;SDS011;12394;42.692;23.314;2024-02-16T00:49:31;18.50;;;12.27;;
24277;SDS011;12394;42.692;23.314;2024-02-16T00:51:57;23.00;;;13.40;;
24277;SDS011;12394;42.692;23.314;2024-02-16T00:54:22;19.57;;;12.70;;
24277;SDS011;12394;42.692;23.314;2024-02-16T00:56:48;20.10;;;12.07;;
24277;SDS011;12394;42.692;23.314;2024-02-16T00:59:13;20.67;;;12.37;;
24277;SDS011;12394;42.692;23.314;2024-02-16T01:01:39;21.87;;;12.80;;
24277;SDS011;12394;42.692;23.314;2024-02-16T01:04:04;18.63;;;12.40;;
24277;SDS011;12394;42.692;23.314;2024-02-16T01:06:32;25.93;;;13.57;;
24277;SDS011;12394;42.692;23.314;2024-02-16T01:08:58;22.27;;;12.83;;
24277;SDS011;12394;42.692;23.314;2024-02-16T01:11:23;20.47;;;11.87;;
24277;SDS011;12394;42.692;23.314;2024-02-16T01:13:49;18.70;;;12.93;;
24277;SDS011;12394;42.692;23.314;2024-02-16T01:16:15;24.30;;;13.17;;
24277;SDS011;12394;42.692;23.314;2024-02-16T01:18:42;21.77;;;13.43;;
24277;SDS011;12394;42.692;23.314;2024-02-16T01:21:10;23.37;;;13.50;;
24277;SDS011;12394;42.692;23.314;2024-02-16T01:23:35;23.13;;;12.40;;
24277;SDS011;12394;42.692;23.314;2024-02-16T01:26:01;20.87;;;13.30;;
24277;SDS011;12394;42.692;23.314;2024-02-16T01:28:26;24.37;;;14.13;;
24277;SDS011;12394;42.692;23.314;2024-02-16T01:30:52;24.43;;;13.70;;
24277;SDS011;12394;42.692;23.314;2024-02-16T01:33:17;21.93;;;13.80;;
24277;SDS011;12394;42.692;23.314;2024-02-16T01:35:44;18.30;;;12.10;;
24277;SDS011;12394;42.692;23.314;2024-02-16T01:38:11;26.13;;;13.87;;
24277;SDS011;12394;42.692;23.314;2024-02-16T01:40:36;22.13;;;14.00;;
24277;SDS011;12394;42.692;23.314;2024-02-16T01:43:02;25.70;;;13.10;;
24277;SDS011;12394;42.692;23.314;2024-02-16T01:45:27;20.70;;;12.97;;
24277;SDS011;12394;42.692;23.314;2024-02-16T01:47:53;19.90;;;13.23;;
24277;SDS011;12394;42.692;23.314;2024-02-16T01:50:19;21.43;;;13.57;;
24277;SDS011;12394;42.692;23.314;2024-02-16T01:52:46;24.97;;;13.47;;
24277;SDS011;12394;42.692;23.314;2024-02-16T01:55:12;20.60;;;12.90;;
24277;SDS011;12394;42.692;23.314;2024-02-16T01:57:45;20.70;;;13.07;;
24277;SDS011;12394;42.692;23.314;2024-02-16T02:00:12;28.43;;;14.53;;
24277;SDS011;12394;42.692;23.314;2024-02-16T02:02:40;24.80;;;13.73;;
24277;SDS011;12394;42.692;23.314;2024-02-16T02:05:08;21.40;;;14.40;;
24277;SDS011;12394;42.692;23.314;2024-02-16T02:07:34;20.27;;;14.03;;
24277;SDS011;12394;42.692;23.314;2024-02-16T02:10:00;20.50;;;12.40;;
24277;SDS011;12394;42.692;23.314;2024-02-16T02:12:25;23.20;;;13.50;;
24277;SDS011;12394;42.692;23.314;2024-02-16T02:14:51;19.03;;;12.73;;
24277;SDS011;12394;42.692;23.314;2024-02-16T02:17:17;18.63;;;11.73;;
24277;SDS011;12394;42.692;23.314;2024-02-16T02:19:44;19.33;;;12.53;;
24277;SDS011;12394;42.692;23.314;2024-02-16T02:22:16;17.47;;;12.23;;
24277;SDS011;12394;42.692;23.314;2024-02-16T02:24:42;20.33;;;12.77;;
24277;SDS011;12394;42.692;23.314;2024-02-16T02:27:09;16.50;;;11.20;;
24277;SDS011;12394;42.692;23.314;2024-02-16T02:29:35;15.57;;;10.63;;
24277;SDS011;12394;42.692;23.314;2024-02-16T02:32:00;14.63;;;10.73;;
24277;SDS011;12394;42.692;23.314;2024-02-16T02:34:26;15.83;;;10.37;;
24277;SDS011;12394;42.692;23.314;2024-02-16T02:36:51;16.17;;;10.43;;
24277;SDS011;12394;42.692;23.314;2024-02-16T02:39:17;15.93;;;10.17;;
24277;SDS011;12394;42.692;23.314;2024-02-16T02:41:42;14.60;;;10.13;;
24277;SDS011;12394;42.692;23.314;2024-02-16T02:44:08;23.60;;;11.53;;
24277;SDS011;12394;42.692;23.314;2024-02-16T02:46:34;17.27;;;10.60;;
24277;SDS011;12394;42.692;23.314;2024-02-16T02:49:00;14.90;;;9.67;;
24277;SDS011;12394;42.692;23.314;2024-02-16T02:51:25;16.67;;;10.33;;
24277;SDS011;12394;42.692;23.314;2024-02-16T02:53:52;16.67;;;10.57;;
24277;SDS011;12394;42.692;23.314;2024-02-16T02:56:17;12.63;;;9.13;;
24277;SDS011;12394;42.692;23.314;2024-02-16T02:58:43;16.20;;;10.30;;
24277;SDS011;12394;42.692;23.314;2024-02-16T03:01:08;17.17;;;10.40;;
24277;SDS011;12394;42.692;23.314;2024-02-16T03:03:34;16.67;;;10.17;;
24277;SDS011;12394;42.692;23.314;2024-02-16T03:06:00;15.13;;;10.17;;
24277;SDS011;12394;42.692;23.314;2024-02-16T03:08:26;15.60;;;9.57;;
24277;SDS011;12394;42.692;23.314;2024-02-16T03:10:51;17.53;;;10.67;;
24277;SDS011;12394;42.692;23.314;2024-02-16T03:13:17;15.00;;;9.93;;
24277;SDS011;12394;42.692;23.314;2024-02-16T03:15:44;19.17;;;11.30;;
24277;SDS011;12394;42.692;23.314;2024-02-16T03:18:13;15.57;;;10.63;;
24277;SDS011;12394;42.692;23.314;2024-02-16T03:20:40;14.17;;;10.13;;
24277;SDS011;12394;42.692;23.314;2024-02-16T03:23:05;15.97;;;10.73;;
24277;SDS011;12394;42.692;23.314;2024-02-16T03:25:30;19.57;;;10.77;;
24277;SDS011;12394;42.692;23.314;2024-02-16T03:27:56;18.03;;;11.57;;
24277;SDS011;12394;42.692;23.314;2024-02-16T03:30:21;17.00;;;10.20;;
24277;SDS011;12394;42.692;23.314;2024-02-16T03:32:50;24.57;;;10.77;;
24277;SDS011;12394;42.692;23.314;2024-02-16T03:35:17;16.20;;;9.83;;
24277;SDS011;12394;42.692;23.314;2024-02-16T03:37:42;14.53;;;10.80;;
24277;SDS011;12394;42.692;23.314;2024-02-16T03:40:08;19.67;;;10.83;;
24277;SDS011;12394;42.692;23.314;2024-02-16T03:42:35;18.10;;;10.83;;
24277;SDS011;12394;42.692;23.314;2024-02-16T03:45:01;19.10;;;11.63;;
24277;SDS011;12394;42.692;23.314;2024-02-16T03:47:27;17.83;;;11.37;;
24277;SDS011;12394;42.692;23.314;2024-02-16T03:49:52;19.17;;;10.87;;
24277;SDS011;12394;42.692;23.314;2024-02-16T03:52:18;22.67;;;12.43;;
24277;SDS011;12394;42.692;23.314;2024-02-16T03:54:43;22.07;;;12.77;;
24277;SDS011;12394;42.692;23.314;2024-02-16T03:57:13;27.70;;;14.37;;
24277;SDS011;12394;42.692;23.314;2024-02-16T03:59:39;19.70;;;13.50;;
24277;SDS011;12394;42.692;23.314;2024-02-16T04:02:04;22.27;;;13.97;;
24277;SDS011;12394;42.692;23.314;2024-02-16T04:04:30;22.03;;;13.13;;
24277;SDS011;12394;42.692;23.314;2024-02-16T04:06:55;28.07;;;12.87;;
24277;SDS011;12394;42.692;23.314;2024-02-16T04:09:21;26.93;;;13.20;;
24277;SDS011;12394;42.692;23.314;2024-02-16T04:11:46;25.70;;;13.73;;
24277;SDS011;12394;42.692;23.314;2024-02-16T04:14:12;24.40;;;13.43;;
24277;SDS011;12394;42.692;23.314;2024-02-16T04:16:37;22.67;;;14.53;;
24277;SDS011;12394;42.692;23.314;2024-02-16T04:19:03;19.63;;;13.70;;
24277;SDS011;12394;42.692;23.314;2024-02-16T04:21:28;19.67;;;13.03;;
24277;SDS011;12394;42.692;23.314;2024-02-16T04:23:54;19.97;;;13.00;;
24277;SDS011;12394;42.692;23.314;2024-02-16T04:26:20;25.20;;;15.77;;
24277;SDS011;12394;42.692;23.314;2024-02-16T04:28:45;23.23;;;14.20;;
24277;SDS011;12394;42.692;23.314;2024-02-16T04:31:11;22.10;;;14.07;;
24277;SDS011;12394;42.692;23.314;2024-02-16T04:33:36;25.20;;;13.10;;
24277;SDS011;12394;42.692;23.314;2024-02-16T04:36:04;24.43;;;14.40;;
24277;SDS011;12394;42.692;23.314;2024-02-16T04:38:32;20.47;;;13.00;;
24277;SDS011;12394;42.692;23.314;2024-02-16T04:40:58;24.73;;;13.77;;
24277;SDS011;12394;42.692;23.314;2024-02-16T04:43:23;20.00;;;12.50;;
24277;SDS011;12394;42.692;23.314;2024-02-16T04:45:49;18.53;;;12.53;;
24277;SDS011;12394;42.692;23.314;2024-02-16T04:48:14;26.53;;;13.57;;
24277;SDS011;12394;42.692;23.314;2024-02-16T04:50:40;18.77;;;11.30;;
24277;SDS011;12394;42.692;23.314;2024-02-16T04:53:06;18.27;;;12.40;;
24277;SDS011;12394;42.692;23.314;2024-02-16T04:55:31;18.80;;;12.30;;
24277;SDS011;12394;42.692;23.314;2024-02-16T04:57:57;23.40;;;12.87;;
24277;SDS011;12394;42.692;23.314;2024-02-16T05:00:23;21.23;;;12.10;;
24277;SDS011;12394;42.692;23.314;2024-02-16T05:02:50;21.50;;;11.80;;
24277;SDS011;12394;42.692;23.314;2024-02-16T05:05:16;24.97;;;13.27;;
24277;SDS011;12394;42.692;23.314;2024-02-16T05:07:42;26.97;;;12.97;;
24277;SDS011;12394;42.692;23.314;2024-02-16T05:10:08;23.17;;;11.97;;
24277;SDS011;12394;42.692;23.314;2024-02-16T05:12:34;19.63;;;12.47;;
24277;SDS011;12394;42.692;23.314;2024-02-16T05:15:00;28.63;;;13.23;;
24277;SDS011;12394;42.692;23.314;2024-02-16T05:17:25;31.77;;;13.37;;
24277;SDS011;12394;42.692;23.314;2024-02-16T05:19:51;31.83;;;12.70;;
24277;SDS011;12394;42.692;23.314;2024-02-16T05:22:19;19.97;;;11.40;;
24277;SDS011;12394;42.692;23.314;2024-02-16T05:24:46;20.53;;;10.93;;
24277;SDS011;12394;42.692;23.314;2024-02-16T05:27:12;23.03;;;12.00;;
24277;SDS011;12394;42.692;23.314;2024-02-16T05:29:38;23.17;;;14.07;;
24277;SDS011;12394;42.692;23.314;2024-02-16T05:32:04;22.97;;;13.20;;
24277;SDS011;12394;42.692;23.314;2024-02-16T05:34:30;24.00;;;14.43;;
24277;SDS011;12394;42.692;23.314;2024-02-16T05:37:02;38.83;;;16.67;;
24277;SDS011;12394;42.692;23.314;2024-02-16T05:39:29;29.17;;;15.57;;
24277;SDS011;12394;42.692;23.314;2024-02-16T05:41:57;37.77;;;15.00;;
24277;SDS011;12394;42.692;23.314;2024-02-16T05:44:22;24.20;;;14.13;;
24277;SDS011;12394;42.692;23.314;2024-02-16T05:46:48;29.87;;;14.57;;
24277;SDS011;12394;42.692;23.314;2024-02-16T05:49:14;23.97;;;15.47;;
24277;SDS011;12394;42.692;23.314;2024-02-16T05:51:41;27.00;;;14.53;;
24277;SDS011;12394;42.692;23.314;2024-02-16T05:54:07;25.47;;;15.00;;
24277;SDS011;12394;42.692;23.314;2024-02-16T05:56:35;26.00;;;15.80;;
24277;SDS011;12394;42.692;23.314;2024-02-16T05:59:04;29.67;;;14.90;;
24277;SDS011;12394;42.692;23.314;2024-02-16T06:01:30;26.90;;;15.40;;
24277;SDS011;12394;42.692;23.314;2024-02-16T06:03:56;34.67;;;15.70;;
24277;SDS011;12394;42.692;23.314;2024-02-16T06:06:22;28.97;;;15.77;;
24277;SDS011;12394;42.692;23.314;2024-02-16T06:08:47;27.60;;;15.90;;
24277;SDS011;12394;42.692;23.314;2024-02-16T06:11:13;29.83;;;15.80;;
24277;SDS011;12394;42.692;23.314;2024-02-16T06:13:38;33.97;;;19.30;;
24277;SDS011;12394;42.692;23.314;2024-02-16T06:16:05;28.27;;;15.23;;
24277;SDS011;12394;42.692;23.314;2024-02-16T06:18:33;32.03;;;15.97;;
24277;SDS011;12394;42.692;23.314;2024-02-16T06:20:59;27.93;;;15.77;;
24277;SDS011;12394;42.692;23.314;2024-02-16T06:23:25;23.73;;;14.33;;
24277;SDS011;12394;42.692;23.314;2024-02-16T06:25:50;26.13;;;14.77;;
24277;SDS011;12394;42.692;23.314;2024-02-16T06:28:16;25.73;;;16.03;;
24277;SDS011;12394;42.692;23.314;2024-02-16T06:30:41;32.33;;;15.10;;
24277;SDS011;12394;42.692;23.314;2024-02-16T06:33:07;28.93;;;15.37;;
24277;SDS011;12394;42.692;23.314;2024-02-16T06:35:32;29.70;;;15.23;;
24277;SDS011;12394;42.692;23.314;2024-02-16T06:37:58;27.60;;;14.87;;
24277;SDS011;12394;42.692;23.314;2024-02-16T06:40:23;27.87;;;15.03;;
24277;SDS011;12394;42.692;23.314;2024-02-16T06:42:51;33.17;;;14.97;;
24277;SDS011;12394;42.692;23.314;2024-02-16T06:45:17;32.20;;;14.43;;
24277;SDS011;12394;42.692;23.314;2024-02-16T06:47:42;21.90;;;13.33;;
24277;SDS011;12394;42.692;23.314;2024-02-16T06:50:08;23.50;;;14.00;;
24277;SDS011;12394;42.692;23.314;2024-02-16T06:52:33;35.43;;;15.00;;
24277;SDS011;12394;42.692;23.314;2024-02-16T06:54:59;43.73;;;16.50;;
24277;SDS011;12394;42.692;23.314;2024-02-16T06:57:24;33.87;;;15.67;;
24277;SDS011;12394;42.692;23.314;2024-02-16T06:59:50;19.20;;;11.27;;
24277;SDS011;12394;42.692;23.314;2024-02-16T07:02:18;18.97;;;11.20;;
24277;SDS011;12394;42.692;23.314;2024-02-16T07:04:45;19.33;;;10.40;;
24277;SDS011;12394;42.692;23.314;2024-02-16T07:07:13;25.57;;;12.03;;
24277;SDS011;12394;42.692;23.314;2024-02-16T07:09:38;22.10;;;10.83;;
24277;SDS011;12394;42.692;23.314;2024-02-16T07:12:04;16.27;;;9.77;;
24277;SDS011;12394;42.692;23.314;2024-02-16T07:14:31;21.90;;;10.07;;
24277;SDS011;12394;42.692;23.314;2024-02-16T07:16:57;17.70;;;8.77;;
24277;SDS011;12394;42.692;23.314;2024-02-16T07:19:23;14.40;;;8.93;;
24277;SDS011;12394;42.692;23.314;2024-02-16T07:21:48;15.33;;;8.03;;
24277;SDS011;12394;42.692;23.314;2024-02-16T07:24:15;15.23;;;7.70;;
24277;SDS011;12394;42.692;23.314;2024-02-16T07:26:40;18.50;;;9.17;;
24277;SDS011;12394;42.692;23.314;2024-02-16T07:29:07;18.80;;;10.50;;
24277;SDS011;12394;42.692;23.314;2024-02-16T07:31:33;13.20;;;10.20;;
24277;SDS011;12394;42.692;23.314;2024-02-16T07:33:59;16.80;;;9.27;;
24277;SDS011;12394;42.692;23.314;2024-02-16T07:36:25;19.40;;;11.63;;
24277;SDS011;12394;42.692;23.314;2024-02-16T07:38:51;18.17;;;10.73;;
24277;SDS011;12394;42.692;23.314;2024-02-16T07:41:16;23.70;;;10.70;;
24277;SDS011;12394;42.692;23.314;2024-02-16T07:43:42;12.43;;;9.27;;
24277;SDS011;12394;42.692;23.314;2024-02-16T07:46:10;15.10;;;8.80;;
24277;SDS011;12394;42.692;23.314;2024-02-16T07:48:39;16.07;;;9.27;;
24277;SDS011;12394;42.692;23.314;2024-02-16T07:51:05;14.37;;;9.30;;
24277;SDS011;12394;42.692;23.314;2024-02-16T07:53:31;20.70;;;9.60;;
24277;SDS011;12394;42.692;23.314;2024-02-16T07:55:56;15.90;;;8.97;;
24277;SDS011;12394;42.692;23.314;2024-02-16T07:58:23;16.20;;;9.93;;
24277;SDS011;12394;42.692;23.314;2024-02-16T08:00:49;18.37;;;10.93;;
24277;SDS011;12394;42.692;23.314;2024-02-16T08:03:16;17.80;;;11.63;;
24277;SDS011;12394;42.692;23.314;2024-02-16T08:05:41;15.23;;;11.40;;
24277;SDS011;12394;42.692;23.314;2024-02-16T08:08:06;32.33;;;14.23;;
24277;SDS011;12394;42.692;23.314;2024-02-16T08:10:32;29.30;;;14.13;;
24277;SDS011;12394;42.692;23.314;2024-02-16T08:12:58;31.90;;;14.27;;
24277;SDS011;12394;42.692;23.314;2024-02-16T08:15:23;38.00;;;16.77;;
24277;SDS011;12394;42.692;23.314;2024-02-16T08:17:50;23.27;;;15.77;;
24277;SDS011;12394;42.692;23.314;2024-02-16T08:20:17;26.53;;;16.43;;
24277;SDS011;12394;42.692;23.314;2024-02-16T08:22:42;33.53;;;17.77;;
24277;SDS011;12394;42.692;23.314;2024-02-16T08:25:08;27.23;;;16.20;;
24277;SDS011;12394;42.692;23.314;2024-02-16T08:27:34;35.77;;;16.50;;
24277;SDS011;12394;42.692;23.314;2024-02-16T08:29:59;27.37;;;14.83;;
24277;SDS011;12394;42.692;23.314;2024-02-16T08:32:27;25.43;;;15.00;;
24277;SDS011;12394;42.692;23.314;2024-02-16T08:34:53;21.33;;;15.43;;
24277;SDS011;12394;42.692;23.314;2024-02-16T08:37:21;20.43;;;15.17;;
24277;SDS011;12394;42.692;23.314;2024-02-16T08:39:46;22.27;;;14.70;;
24277;SDS011;12394;42.692;23.314;2024-02-16T08:42:12;26.83;;;15.13;;
24277;SDS011;12394;42.692;23.314;2024-02-16T08:44:38;24.13;;;14.20;;
24277;SDS011;12394;42.692;23.314;2024-02-16T08:47:05;19.30;;;14.00;;
24277;SDS011;12394;42.692;23.314;2024-02-16T08:49:32;24.47;;;14.37;;
24277;SDS011;12394;42.692;23.314;2024-02-16T08:51:57;21.07;;;13.30;;
24277;SDS011;12394;42.692;23.314;2024-02-16T08:54:23;18.03;;;12.50;;
24277;SDS011;12394;42.692;23.314;2024-02-16T08:56:49;19.30;;;12.60;;
24277;SDS011;12394;42.692;23.314;2024-02-16T08:59:14;21.60;;;14.33;;
24277;SDS011;12394;42.692;23.314;2024-02-16T09:01:43;17.93;;;13.00;;
24277;SDS011;12394;42.692;23.314;2024-02-16T09:04:09;19.90;;;14.60;;
24277;SDS011;12394;42.692;23.314;2024-02-16T09:06:34;28.63;;;14.67;;
24277;SDS011;12394;42.692;23.314;2024-02-16T09:09:00;24.47;;;14.83;;
24277;SDS011;12394;42.692;23.314;2024-02-16T09:11:26;26.87;;;13.40;;
24277;SDS011;12394;42.692;23.314;2024-02-16T09:13:52;26.53;;;14.63;;
24277;SDS011;12394;42.692;23.314;2024-02-16T09:16:18;11.97;;;8.03;;
24277;SDS011;12394;42.692;23.314;2024-02-16T09:18:44;11.47;;;8.70;;
24277;SDS011;12394;42.692;23.314;2024-02-16T09:21:10;12.13;;;8.43;;
24277;SDS011;12394;42.692;23.314;2024-02-16T09:23:36;8.13;;;7.27;;
24277;SDS011;12394;42.692;23.314;2024-02-16T09:26:01;15.60;;;8.53;;
24277;SDS011;12394;42.692;23.314;2024-02-16T09:28:27;16.83;;;8.40;;
24277;SDS011;12394;42.692;23.314;2024-02-16T09:30:57;10.43;;;7.73;;
24277;SDS011;12394;42.692;23.314;2024-02-16T09:33:23;14.60;;;7.90;;
24277;SDS011;12394;42.692;23.314;2024-02-16T09:35:49;10.97;;;8.47;;
24277;SDS011;12394;42.692;23.314;2024-02-16T09:38:15;6.43;;;5.17;;
24277;SDS011;12394;42.692;23.314;2024-02-16T09:40:41;13.77;;;6.93;;
24277;SDS011;12394;42.692;23.314;2024-02-16T09:43:07;11.83;;;7.87;;
24277;SDS011;12394;42.692;23.314;2024-02-16T09:45:33;10.13;;;7.10;;
24277;SDS011;12394;42.692;23.314;2024-02-16T09:47:59;9.90;;;5.43;;
24277;SDS011;12394;42.692;23.314;2024-02-16T09:50:24;6.47;;;4.70;;
24277;SDS011;12394;42.692;23.314;2024-02-16T09:52:52;5.93;;;4.90;;
24277;SDS011;12394;42.692;23.314;2024-02-16T09:55:19;6.87;;;5.53;;
24277;SDS011;12394;42.692;23.314;2024-02-16T09:57:45;8.20;;;5.20;;
24277;SDS011;12394;42.692;23.314;2024-02-16T10:00:10;6.03;;;5.20;;
24277;SDS011;12394;42.692;23.314;2024-02-16T10:02:45;13.73;;;4.47;;
24277;SDS011;12394;42.692;23.314;2024-02-16T10:07:44;8.70;;;5.83;;
24277;SDS011;12394;42.692;23.314;2024-02-16T10:10:19;5.27;;;3.90;;
24277;SDS011;12394;42.692;23.314;2024-02-16T10:12:48;8.63;;;4.53;;
24277;SDS011;12394;42.692;23.314;2024-02-16T10:15:21;9.53;;;4.37;;
24277;SDS011;12394;42.692;23.314;2024-02-16T10:17:57;14.87;;;6.37;;
24277;SDS011;12394;42.692;23.314;2024-02-16T10:20:32;7.27;;;4.97;;
24277;SDS011;12394;42.692;23.314;2024-02-16T10:25:37;10.93;;;5.37;;
24277;SDS011;12394;42.692;23.314;2024-02-16T10:28:06;5.83;;;5.23;;
24277;SDS011;12394;42.692;23.314;2024-02-16T10:30:37;8.70;;;5.37;;
24277;SDS011;12394;42.692;23.314;2024-02-16T10:33:06;13.63;;;6.50;;
24277;SDS011;12394;42.692;23.314;2024-02-16T10:35:35;8.17;;;6.10;;
24277;SDS011;12394;42.692;23.314;2024-02-16T10:38:02;9.30;;;7.27;;
24277;SDS011;12394;42.692;23.314;2024-02-16T10:40:38;8.30;;;6.37;;
24277;SDS011;12394;42.692;23.314;2024-02-16T10:43:05;13.20;;;6.83;;
24277;SDS011;12394;42.692;23.314;2024-02-16T10:45:33;10.90;;;8.83;;
24277;SDS011;12394;42.692;23.314;2024-02-16T10:48:01;10.13;;;7.77;;
24277;SDS011;12394;42.692;23.314;2024-02-16T10:50:27;9.13;;;6.67;;
24277;SDS011;12394;42.692;23.314;2024-02-16T10:52:53;11.27;;;7.43;;
24277;SDS011;12394;42.692;23.314;2024-02-16T10:55:21;7.73;;;5.73;;
24277;SDS011;12394;42.692;23.314;2024-02-16T10:57:49;9.00;;;7.70;;
24277;SDS011;12394;42.692;23.314;2024-02-16T11:00:15;9.97;;;6.33;;
24277;SDS011;12394;42.692;23.314;2024-02-16T11:05:41;6.70;;;5.50;;
24277;SDS011;12394;42.692;23.314;2024-02-16T11:08:14;5.37;;;4.87;;
24277;SDS011;12394;42.692;23.314;2024-02-16T11:10:41;9.50;;;4.90;;
24277;SDS011;12394;42.692;23.314;2024-02-16T11:13:22;5.37;;;4.50;;
24277;SDS011;12394;42.692;23.314;2024-02-16T11:15:56;15.00;;;7.57;;
24277;SDS011;12394;42.692;23.314;2024-02-16T11:18:28;11.47;;;7.80;;
24277;SDS011;12394;42.692;23.314;2024-02-16T11:20:55;6.83;;;5.87;;
24277;SDS011;12394;42.692;23.314;2024-02-16T11:23:29;8.90;;;7.00;;
24277;SDS011;12394;42.692;23.314;2024-02-16T11:26:02;12.83;;;6.50;;
24277;SDS011;12394;42.692;23.314;2024-02-16T11:28:32;7.20;;;5.57;;
24277;SDS011;12394;42.692;23.314;2024-02-16T11:30:59;12.03;;;7.77;;
24277;SDS011;12394;42.692;23.314;2024-02-16T11:33:26;12.03;;;8.27;;
24277;SDS011;12394;42.692;23.314;2024-02-16T11:35:55;10.13;;;7.20;;
24277;SDS011;12394;42.692;23.314;2024-02-16T11:38:25;7.00;;;5.03;;
24277;SDS011;12394;42.692;23.314;2024-02-16T11:40:58;7.20;;;6.00;;
24277;SDS011;12394;42.692;23.314;2024-02-16T11:43:24;9.57;;;6.57;;
24277;SDS011;12394;42.692;23.314;2024-02-16T11:45:50;12.07;;;7.70;;
24277;SDS011;12394;42.692;23.314;2024-02-16T11:48:22;8.93;;;6.03;;
24277;SDS011;12394;42.692;23.314;2024-02-16T11:50:49;9.60;;;5.90;;
24277;SDS011;12394;42.692;23.314;2024-02-16T11:53:18;10.93;;;5.90;;
24277;SDS011;12394;42.692;23.314;2024-02-16T11:55:48;8.83;;;5.50;;
24277;SDS011;12394;42.692;23.314;2024-02-16T11:58:15;9.07;;;6.23;;
24277;SDS011;12394;42.692;23.314;2024-02-16T12:00:47;13.17;;;6.27;;
24277;SDS011;12394;42.692;23.314;2024-02-16T12:05:58;9.83;;;5.43;;
24277;SDS011;12394;42.692;23.314;2024-02-16T12:08:24;8.57;;;5.37;;
24277;SDS011;12394;42.692;23.314;2024-02-16T12:10:57;6.80;;;5.33;;
24277;SDS011;12394;42.692;23.314;2024-02-16T12:13:23;6.20;;;4.77;;
24277;SDS011;12394;42.692;23.314;2024-02-16T12:15:50;7.07;;;5.20;;
24277;SDS011;12394;42.692;23.314;2024-02-16T12:18:22;5.97;;;5.03;;
24277;SDS011;12394;42.692;23.314;2024-02-16T12:23:31;9.20;;;5.50;;
24277;SDS011;12394;42.692;23.314;2024-02-16T12:26:00;8.33;;;5.37;;
24277;SDS011;12394;42.692;23.314;2024-02-16T12:28:27;7.47;;;5.33;;
24277;SDS011;12394;42.692;23.314;2024-02-16T12:30:54;8.47;;;5.50;;
24277;SDS011;12394;42.692;23.314;2024-02-16T12:33:21;8.20;;;5.23;;
24277;SDS011;12394;42.692;23.314;2024-02-16T12:35:47;7.20;;;5.13;;
24277;SDS011;12394;42.692;23.314;2024-02-16T12:38:13;7.23;;;5.47;;
24277;SDS011;12394;42.692;23.314;2024-02-16T12:40:38;9.43;;;5.67;;
24277;SDS011;12394;42.692;23.314;2024-02-16T12:43:04;6.13;;;5.00;;
24277;SDS011;12394;42.692;23.314;2024-02-16T12:45:30;13.97;;;5.27;;
24277;SDS011;12394;42.692;23.314;2024-02-16T12:47:56;5.80;;;4.47;;
24277;SDS011;12394;42.692;23.314;2024-02-16T12:50:22;12.13;;;6.73;;
24277;SDS011;12394;42.692;23.314;2024-02-16T12:52:47;7.20;;;5.67;;
24277;SDS011;12394;42.692;23.314;2024-02-16T12:55:13;7.97;;;5.60;;
24277;SDS011;12394;42.692;23.314;2024-02-16T12:57:39;14.77;;;5.63;;
24277;SDS011;12394;42.692;23.314;2024-02-16T13:00:05;11.20;;;7.13;;
24277;SDS011;12394;42.692;23.314;2024-02-16T13:02:31;14.03;;;6.53;;
24277;SDS011;12394;42.692;23.314;2024-02-16T13:04:56;14.70;;;7.60;;
24277;SDS011;12394;42.692;23.314;2024-02-16T13:07:23;12.37;;;6.63;;
24277;SDS011;12394;42.692;23.314;2024-02-16T13:09:49;12.67;;;8.87;;
24277;SDS011;12394;42.692;23.314;2024-02-16T13:12:16;10.03;;;5.27;;
24277;SDS011;12394;42.692;23.314;2024-02-16T13:14:42;8.60;;;5.97;;
24277;SDS011;12394;42.692;23.314;2024-02-16T13:17:07;15.40;;;6.23;;
24277;SDS011;12394;42.692;23.314;2024-02-16T13:19:33;7.90;;;5.17;;
24277;SDS011;12394;42.692;23.314;2024-02-16T13:21:58;6.30;;;4.77;;
24277;SDS011;12394;42.692;23.314;2024-02-16T13:24:24;5.43;;;4.40;;
24277;SDS011;12394;42.692;23.314;2024-02-16T13:26:49;11.13;;;5.83;;
24277;SDS011;12394;42.692;23.314;2024-02-16T13:29:15;8.10;;;5.47;;
24277;SDS011;12394;42.692;23.314;2024-02-16T13:31:40;7.73;;;5.20;;
24277;SDS011;12394;42.692;23.314;2024-02-16T13:34:07;6.20;;;4.93;;
24277;SDS011;12394;42.692;23.314;2024-02-16T13:36:33;6.50;;;5.03;;
24277;SDS011;12394;42.692;23.314;2024-02-16T13:38:59;7.60;;;5.53;;
24277;SDS011;12394;42.692;23.314;2024-02-16T13:41:25;7.83;;;5.03;;
24277;SDS011;12394;42.692;23.314;2024-02-16T13:43:51;5.73;;;4.17;;
24277;SDS011;12394;42.692;23.314;2024-02-16T13:46:17;5.47;;;4.80;;
24277;SDS011;12394;42.692;23.314;2024-02-16T13:48:42;6.70;;;4.90;;
24277;SDS011;12394;42.692;23.314;2024-02-16T13:51:08;8.83;;;3.70;;
24277;SDS011;12394;42.692;23.314;2024-02-16T13:53:35;4.97;;;4.10;;
24277;SDS011;12394;42.692;23.314;2024-02-16T13:56:01;6.67;;;4.47;;
24277;SDS011;12394;42.692;23.314;2024-02-16T13:58:29;6.40;;;3.70;;
24277;SDS011;12394;42.692;23.314;2024-02-16T14:00:55;5.13;;;4.63;;
24277;SDS011;12394;42.692;23.314;2024-02-16T14:03:21;8.13;;;5.07;;
24277;SDS011;12394;42.692;23.314;2024-02-16T14:05:47;6.63;;;4.33;;
24277;SDS011;12394;42.692;23.314;2024-02-16T14:08:13;6.63;;;4.70;;
24277;SDS011;12394;42.692;23.314;2024-02-16T14:10:40;5.37;;;3.83;;
24277;SDS011;12394;42.692;23.314;2024-02-16T14:13:07;8.37;;;4.93;;
24277;SDS011;12394;42.692;23.314;2024-02-16T14:15:32;6.70;;;4.33;;
24277;SDS011;12394;42.692;23.314;2024-02-16T14:17:58;6.30;;;4.20;;
24277;SDS011;12394;42.692;23.314;2024-02-16T14:20:24;5.47;;;4.33;;
24277;SDS011;12394;42.692;23.314;2024-02-16T14:22:50;6.60;;;4.97;;
24277;SDS011;12394;42.692;23.314;2024-02-16T14:25:16;5.03;;;4.07;;